Time;durP1;ratioP1;P1;durP2;ratioP2;P2;SDS_P1;SDS_P2;PMS_P1;PMS_P2;Temp;Humidity;BMP_temperature;BMP_pressure;BME280_temperature;BME280_humidity;BME280_pressure;Samples;Min_cycle;Max_cycle;Signal;HPM_P1;HPM_P2
2021/05/23 00:01:04;;;;;;;4.15;2.25;;;;;16.40;100742.00;;;;5081368;28;20212;-79
2021/05/23 00:03:33;;;;;;;5.32;2.22;;;;;16.40;100737.00;;;;5075574;28;20214;-79
2021/05/23 00:06:00;;;;;;;3.47;1.90;;;;;16.30;100736.00;;;;5071103;28;20218;-80
2021/05/23 00:08:27;;;;;;;3.13;1.55;;;;;16.30;100737.00;;;;5070286;28;20230;-80
2021/05/23 00:10:57;;;;;;;5.80;2.25;;;;;16.30;100737.00;;;;5071067;28;20233;-79
2021/05/23 00:13:26;;;;;;;2.10;1.70;;;;;16.30;100744.00;;;;5070011;28;20187;-80
2021/05/23 00:15:56;;;;;;;2.78;2.40;;;;;16.30;100740.00;;;;5070813;28;20203;-80
2021/05/23 00:18:24;;;;;;;3.38;2.30;;;;;16.30;100743.00;;;;5070577;28;20575;-80
2021/05/23 00:20:52;;;;;;;3.03;2.20;;;;;16.30;100736.00;;;;5069791;28;21514;-79
2021/05/23 00:23:19;;;;;;;3.38;2.10;;;;;16.20;100736.00;;;;5070583;28;20580;-79
2021/05/23 00:25:47;;;;;;;5.07;2.40;;;;;16.20;100745.00;;;;5070900;28;20203;-79
2021/05/23 00:28:14;;;;;;;5.88;2.20;;;;;16.20;100743.00;;;;5082786;28;20218;-80
2021/05/23 00:30:41;;;;;;;2.40;1.90;;;;;16.20;100739.00;;;;5085062;28;20223;-79
2021/05/23 00:33:09;;;;;;;5.07;2.28;;;;;16.20;100742.00;;;;5069128;28;20669;-79
2021/05/23 00:35:38;;;;;;;2.92;1.95;;;;;16.20;100742.00;;;;5070424;28;20199;-79
2021/05/23 00:38:05;;;;;;;5.20;2.65;;;;;16.20;100740.00;;;;5070153;28;20194;-79
2021/05/23 00:40:33;;;;;;;2.60;2.05;;;;;16.10;100742.00;;;;5073832;28;20206;-80
2021/05/23 00:43:00;;;;;;;4.22;1.95;;;;;16.10;100749.00;;;;5089799;28;20206;-80
2021/05/23 00:45:27;;;;;;;3.17;2.22;;;;;16.10;100741.00;;;;5089340;28;20209;-80
2021/05/23 00:47:53;;;;;;;2.95;2.17;;;;;16.10;100745.00;;;;5088216;28;20208;-79
2021/05/23 00:50:22;;;;;;;4.35;2.75;;;;;16.10;100755.00;;;;5069442;28;20727;-79
2021/05/23 00:52:52;;;;;;;6.32;2.63;;;;;16.10;100755.00;;;;5069753;28;20191;-80
2021/05/23 00:55:19;;;;;;;4.88;2.72;;;;;16.10;100759.00;;;;5073048;28;20186;-80
2021/05/23 00:57:46;;;;;;;3.28;2.70;;;;;16.00;100755.00;;;;5090249;28;20682;-79
2021/05/23 01:00:34;;;;;;;3.72;2.13;;;;;16.00;100748.00;;;;5089151;28;20225;-80
2021/05/23 01:03:01;;;;;;;2.67;2.20;;;;;16.00;100752.00;;;;5069593;28;20210;-80
2021/05/23 01:05:29;;;;;;;3.53;2.30;;;;;16.00;100751.00;;;;5069629;28;20730;-80
2021/05/23 01:07:57;;;;;;;4.50;2.05;;;;;16.00;100758.00;;;;5069196;28;20227;-79
2021/05/23 01:10:27;;;;;;;4.25;2.28;;;;;16.00;100756.00;;;;5067976;28;20588;-80
2021/05/23 01:13:33;;;;;;;2.92;2.03;;;;;15.90;100753.00;;;;5072246;28;20292;-80
2021/05/23 01:16:00;;;;;;;3.20;2.13;;;;;16.00;100748.00;;;;5089577;28;20202;-79
2021/05/23 01:18:40;;;;;;;2.88;2.38;;;;;16.00;100765.00;;;;5082707;28;20603;-80
2021/05/23 01:21:08;;;;;;;2.80;2.45;;;;;16.00;100757.00;;;;5074217;28;20201;-80
2021/05/23 01:23:41;;;;;;;3.45;2.50;;;;;15.90;100756.00;;;;5086384;28;20713;-79
2021/05/23 01:26:13;;;;;;;3.63;2.10;;;;;16.00;100756.00;;;;5068692;28;20198;-80
2021/05/23 01:28:42;;;;;;;4.07;2.25;;;;;16.00;100755.00;;;;5069699;28;20239;-80
2021/05/23 01:31:11;;;;;;;5.60;2.53;;;;;16.00;100755.00;;;;5068160;28;20296;-80
2021/05/23 01:33:38;;;;;;;3.22;2.45;;;;;16.00;100757.00;;;;5069253;28;20199;-80
2021/05/23 01:36:06;;;;;;;3.55;2.67;;;;;16.00;100759.00;;;;5068811;28;20707;-79
2021/05/23 01:38:34;;;;;;;4.60;2.40;;;;;16.00;100759.00;;;;5068883;28;20199;-80
2021/05/23 01:41:05;;;;;;;3.30;2.40;;;;;15.90;100765.00;;;;5071705;28;20194;-80
2021/05/23 01:43:33;;;;;;;4.20;2.33;;;;;15.90;100759.00;;;;5069730;28;20745;-79
2021/05/23 01:46:01;;;;;;;5.10;3.13;;;;;15.90;100760.00;;;;5068748;28;20656;-79
2021/05/23 01:48:28;;;;;;;6.75;2.83;;;;;15.90;100762.00;;;;5068865;28;20203;-80
2021/05/23 01:50:55;;;;;;;4.13;2.40;;;;;15.90;100766.00;;;;5068790;28;20233;-79
2021/05/23 01:53:22;;;;;;;7.10;2.83;;;;;15.90;100771.00;;;;5069085;28;20210;-80
2021/05/23 01:55:48;;;;;;;5.13;2.60;;;;;15.90;100769.00;;;;5069149;28;20657;-80
2021/05/23 01:58:15;;;;;;;3.28;2.83;;;;;15.90;100764.00;;;;5069093;28;20210;-80
2021/05/23 02:00:45;;;;;;;3.28;2.28;;;;;15.90;100763.00;;;;5068442;28;20206;-79
2021/05/23 02:03:13;;;;;;;3.22;2.55;;;;;15.90;100764.00;;;;5068350;28;20199;-80
2021/05/23 02:05:42;;;;;;;3.40;2.72;;;;;15.80;100758.00;;;;5079388;28;20190;-80
2021/05/23 02:08:09;;;;;;;4.13;3.00;;;;;15.80;100763.00;;;;5070235;28;20732;-80
2021/05/23 02:10:36;;;;;;;4.82;2.15;;;;;15.80;100760.00;;;;5085268;28;20259;-81
2021/05/23 02:13:05;;;;;;;6.00;2.67;;;;;15.80;100764.00;;;;5069661;28;20210;-80
2021/05/23 02:15:33;;;;;;;3.40;2.35;;;;;15.80;100757.00;;;;5068843;28;20199;-80
2021/05/23 02:18:01;;;;;;;3.10;2.55;;;;;15.80;100759.00;;;;5068931;28;20263;-80
2021/05/23 02:20:30;;;;;;;4.57;2.70;;;;;15.80;100754.00;;;;5069189;28;20202;-80
2021/05/23 02:22:58;;;;;;;3.30;2.42;;;;;15.80;100756.00;;;;5086013;28;20684;-80
2021/05/23 02:25:27;;;;;;;3.33;2.38;;;;;15.80;100758.00;;;;5089560;28;20209;-80
2021/05/23 02:27:57;;;;;;;4.72;2.50;;;;;15.70;100756.00;;;;5087719;28;20226;-80
2021/05/23 02:30:27;;;;;;;4.85;2.95;;;;;15.70;100756.00;;;;5081609;28;20187;-80
2021/05/23 02:32:54;;;;;;;4.97;2.80;;;;;15.70;100752.00;;;;5068271;28;20191;-81
2021/05/23 02:35:24;;;;;;;3.17;2.60;;;;;15.70;100756.00;;;;5068800;28;20213;-80
2021/05/23 02:37:51;;;;;;;3.83;2.72;;;;;15.70;100752.00;;;;5068105;28;20722;-80
2021/05/23 02:40:20;;;;;;;3.33;2.88;;;;;15.70;100754.00;;;;5074645;28;20668;-80
2021/05/23 02:42:48;;;;;;;4.43;2.65;;;;;15.70;100759.00;;;;5073563;28;20199;-80
2021/05/23 02:45:16;;;;;;;3.75;2.80;;;;;15.70;100760.00;;;;5067748;28;20687;-80
2021/05/23 02:47:44;;;;;;;3.50;2.80;;;;;15.70;100761.00;;;;5072204;28;20205;-80
2021/05/23 02:50:14;;;;;;;4.43;2.85;;;;;15.70;100762.00;;;;5071453;28;20199;-80
2021/05/23 02:52:42;;;;;;;6.55;3.00;;;;;15.70;100760.00;;;;5072366;28;20195;-80
2021/05/23 02:55:10;;;;;;;3.55;2.28;;;;;15.70;100761.00;;;;5072044;28;20206;-81
2021/05/23 02:57:39;;;;;;;4.53;2.90;;;;;15.70;100766.00;;;;5072338;28;20650;-80
2021/05/23 03:00:09;;;;;;;3.80;2.65;;;;;15.70;100766.00;;;;5078667;28;20198;-80
2021/05/23 03:02:37;;;;;;;4.15;2.47;;;;;15.70;100768.00;;;;5079039;28;20249;-80
2021/05/23 03:05:05;;;;;;;6.63;2.95;;;;;15.70;100761.00;;;;5071508;28;20633;-80
2021/05/23 03:07:37;;;;;;;4.55;2.75;;;;;15.70;100770.00;;;;5072336;28;20207;-80
2021/05/23 03:10:06;;;;;;;3.97;2.90;;;;;15.80;100777.00;;;;5071622;28;20209;-80
2021/05/23 03:12:33;;;;;;;3.50;2.75;;;;;15.80;100774.00;;;;5071423;28;20260;-80
2021/05/23 03:15:00;;;;;;;2.63;2.38;;;;;15.80;100779.00;;;;5071206;28;20215;-79
2021/05/23 03:17:27;;;;;;;3.58;2.45;;;;;15.80;100783.00;;;;5071987;28;20206;-80
2021/05/23 03:19:54;;;;;;;6.68;3.67;;;;;15.80;100780.00;;;;5071172;28;20561;-80
2021/05/23 03:22:21;;;;;;;3.33;2.63;;;;;15.80;100787.00;;;;5070413;28;20203;-80
2021/05/23 03:24:47;;;;;;;4.10;2.67;;;;;15.80;100778.00;;;;5071802;28;20218;-80
2021/05/23 03:27:15;;;;;;;3.63;2.25;;;;;15.80;100774.00;;;;5071155;28;20222;-80
2021/05/23 03:29:42;;;;;;;13.73;3.15;;;;;15.90;100783.00;;;;5071101;28;20206;-80
2021/05/23 03:32:09;;;;;;;3.53;2.58;;;;;15.90;100777.00;;;;5071035;28;20227;-79
2021/05/23 03:34:35;;;;;;;4.68;2.97;;;;;15.90;100774.00;;;;5080018;28;20199;-80
2021/05/23 03:37:02;;;;;;;3.50;2.53;;;;;15.90;100778.00;;;;5091695;28;20202;-80
2021/05/23 03:39:29;;;;;;;3.72;2.63;;;;;15.90;100784.00;;;;5091424;28;20205;-80
2021/05/23 03:41:56;;;;;;;3.38;2.45;;;;;15.90;100789.00;;;;5071690;28;20237;-80
2021/05/23 03:44:23;;;;;;;4.30;2.92;;;;;15.90;100793.00;;;;5082422;28;20695;-80
2021/05/23 03:46:50;;;;;;;4.22;2.85;;;;;15.90;100790.00;;;;5091087;28;20190;-80
2021/05/23 03:49:17;;;;;;;4.20;3.15;;;;;15.90;100790.00;;;;5091202;28;20198;-80
2021/05/23 03:51:45;;;;;;;4.13;3.00;;;;;15.90;100792.00;;;;5090407;28;20234;-80
2021/05/23 03:54:12;;;;;;;6.13;3.15;;;;;15.90;100789.00;;;;5081014;28;20244;-80
2021/05/23 03:56:39;;;;;;;4.22;3.22;;;;;16.00;100792.00;;;;5070748;28;20195;-80
2021/05/23 03:59:06;;;;;;;4.60;3.28;;;;;16.00;100793.00;;;;5070468;28;20665;-80
2021/05/23 04:01:33;;;;;;;4.65;3.70;;;;;16.00;100795.00;;;;5070948;28;20211;-81
2021/05/23 04:04:01;;;;;;;5.47;4.43;;;;;16.00;100796.00;;;;5076917;28;20664;-80
2021/05/23 04:06:28;;;;;;;7.05;4.00;;;;;16.00;100798.00;;;;5090210;28;20199;-80
2021/05/23 04:08:55;;;;;;;5.18;4.03;;;;;16.00;100795.00;;;;5088496;28;20230;-81
2021/05/23 04:11:26;;;;;;;4.53;3.85;;;;;16.00;100791.00;;;;5090418;28;20226;-80
2021/05/23 04:13:52;;;;;;;6.18;4.85;;;;;16.10;100803.00;;;;5085268;28;20283;-80
2021/05/23 04:16:19;;;;;;;6.30;4.68;;;;;16.10;100798.00;;;;5069455;28;20534;-80
2021/05/23 04:18:47;;;;;;;7.07;4.97;;;;;16.10;100799.00;;;;5069558;28;20214;-80
2021/05/23 04:21:14;;;;;;;6.85;5.22;;;;;16.10;100810.00;;;;5069432;28;20210;-80
2021/05/23 04:23:41;;;;;;;8.23;6.50;;;;;16.10;100816.00;;;;5069944;28;20202;-80
2021/05/23 04:26:08;;;;;;;9.55;6.05;;;;;16.20;100820.00;;;;5073673;28;20202;-80
2021/05/23 04:28:35;;;;;;;7.72;5.72;;;;;16.20;100816.00;;;;5069611;28;20746;-80
2021/05/23 04:31:01;;;;;;;7.50;5.65;;;;;16.20;100827.00;;;;5069618;28;20278;-81
2021/05/23 04:33:28;;;;;;;7.25;5.03;;;;;16.20;100820.00;;;;5069216;28;20256;-80
2021/05/23 04:35:56;;;;;;;7.20;5.35;;;;;16.20;100812.00;;;;5089304;28;20569;-80
2021/05/23 04:38:22;;;;;;;7.45;5.35;;;;;16.20;100820.00;;;;5089541;28;20664;-80
2021/05/23 04:40:49;;;;;;;7.40;5.50;;;;;16.20;100820.00;;;;5087053;28;20882;-80
2021/05/23 04:43:16;;;;;;;7.30;5.63;;;;;16.30;100828.00;;;;5073494;28;20199;-80
2021/05/23 04:45:43;;;;;;;8.57;6.50;;;;;16.30;100827.00;;;;5070009;28;20217;-79
2021/05/23 04:48:10;;;;;;;6.75;5.10;;;;;16.30;100811.00;;;;5069267;28;20245;-79
2021/05/23 04:50:37;;;;;;;6.80;4.88;;;;;16.30;100812.00;;;;5070398;28;20554;-79
2021/05/23 04:53:05;;;;;;;7.63;4.53;;;;;16.20;100812.00;;;;5084932;28;20259;-80
2021/05/23 04:55:32;;;;;;;6.45;4.63;;;;;16.30;100813.00;;;;5089883;28;20198;-79
2021/05/23 04:57:59;;;;;;;5.43;4.20;;;;;16.30;100820.00;;;;5090061;28;20194;-80
2021/05/23 05:00:26;;;;;;;4.75;3.63;;;;;16.30;100817.00;;;;5086580;28;20721;-79
2021/05/23 05:02:52;;;;;;;4.97;3.72;;;;;16.30;100826.00;;;;5090424;28;20198;-80
2021/05/23 05:05:19;;;;;;;4.43;3.85;;;;;16.30;100828.00;;;;5086338;28;20327;-79
2021/05/23 05:07:46;;;;;;;5.70;3.90;;;;;16.40;100829.00;;;;5074031;28;20194;-80
2021/05/23 05:10:14;;;;;;;5.07;4.28;;;;;16.40;100837.00;;;;5084509;28;20209;-80
2021/05/23 05:12:41;;;;;;;4.88;3.92;;;;;16.40;100832.00;;;;5090438;28;20226;-80
2021/05/23 05:15:10;;;;;;;5.75;4.05;;;;;16.40;100828.00;;;;5082327;28;20198;-80
2021/05/23 05:17:37;;;;;;;5.22;3.53;;;;;16.50;100827.00;;;;5083651;28;20566;-80
2021/05/23 05:20:06;;;;;;;4.38;3.25;;;;;16.50;100819.00;;;;5074120;28;20589;-80
2021/05/23 05:22:32;;;;;;;4.53;3.45;;;;;16.50;100821.00;;;;5077852;28;20203;-80
2021/05/23 05:24:59;;;;;;;6.03;3.47;;;;;16.50;100830.00;;;;5083429;28;20205;-80
2021/05/23 05:27:27;;;;;;;4.50;3.65;;;;;16.50;100826.00;;;;5068638;28;20218;-80
2021/05/23 05:29:54;;;;;;;5.68;4.55;;;;;16.60;100834.00;;;;5068412;28;20195;-80
2021/05/23 05:32:20;;;;;;;5.68;4.40;;;;;16.60;100831.00;;;;5077331;28;20222;-80
2021/05/23 05:34:47;;;;;;;6.13;4.82;;;;;16.60;100831.00;;;;5070792;28;20199;-80
2021/05/23 05:37:14;;;;;;;8.18;5.72;;;;;16.60;100831.00;;;;5074465;28;20281;-80
2021/05/23 05:39:41;;;;;;;5.78;5.15;;;;;16.60;100844.00;;;;5075703;28;20203;-80
2021/05/23 05:42:08;;;;;;;7.53;5.35;;;;;16.60;100850.00;;;;5083282;28;20194;-78
2021/05/23 05:44:35;;;;;;;6.55;5.18;;;;;16.60;100852.00;;;;5068342;28;20691;-78
2021/05/23 05:47:02;;;;;;;9.65;6.38;;;;;16.60;100843.00;;;;5068709;28;20198;-79
2021/05/23 05:49:29;;;;;;;8.32;6.38;;;;;16.60;100853.00;;;;5075023;28;20564;-80
2021/05/23 05:51:56;;;;;;;8.32;6.32;;;;;16.60;100851.00;;;;5068666;28;20226;-80
2021/05/23 05:54:22;;;;;;;7.38;6.60;;;;;16.60;100863.00;;;;5074833;28;20198;-78
2021/05/23 05:56:49;;;;;;;9.50;6.75;;;;;16.50;100858.00;;;;5075805;28;20205;-79
2021/05/23 05:59:16;;;;;;;8.60;7.07;;;;;16.60;100867.00;;;;5078577;28;20186;-78
2021/05/23 06:01:44;;;;;;;8.75;7.22;;;;;16.50;100867.00;;;;5068949;28;20224;-80
2021/05/23 06:04:10;;;;;;;7.15;5.95;;;;;16.50;100865.00;;;;5067985;28;20222;-79
2021/05/23 06:06:37;;;;;;;12.50;5.38;;;;;16.50;100873.00;;;;5078565;28;20263;-80
2021/05/23 06:09:04;;;;;;;8.52;5.43;;;;;16.50;100885.00;;;;5067600;28;20705;-80
2021/05/23 06:11:31;;;;;;;7.15;5.78;;;;;16.50;100881.00;;;;5068767;28;20222;-81
2021/05/23 06:14:00;;;;;;;14.32;5.25;;;;;16.50;100878.00;;;;5067503;28;20209;-80
2021/05/23 06:16:27;;;;;;;7.13;4.03;;;;;16.50;100893.00;;;;5080551;28;20206;-80
2021/05/23 06:18:55;;;;;;;5.50;4.18;;;;;16.50;100886.00;;;;5067700;28;20582;-81
2021/05/23 06:21:22;;;;;;;7.15;3.97;;;;;16.60;100887.00;;;;5079456;28;20209;-80
2021/05/23 06:23:49;;;;;;;4.25;3.85;;;;;16.60;100897.00;;;;5073901;28;20194;-81
2021/05/23 06:26:15;;;;;;;6.68;3.85;;;;;16.60;100894.00;;;;5070341;28;20195;-80
2021/05/23 06:28:42;;;;;;;6.22;3.40;;;;;16.70;100900.00;;;;5086898;28;20222;-80
2021/05/23 06:31:10;;;;;;;4.28;3.13;;;;;16.70;100901.00;;;;5072496;28;20229;-81
2021/05/23 06:33:37;;;;;;;4.07;2.90;;;;;16.80;100903.00;;;;5068437;28;20234;-80
2021/05/23 06:36:05;;;;;;;5.30;2.83;;;;;16.80;100907.00;;;;5081145;28;21129;-80
2021/05/23 06:38:32;;;;;;;5.53;2.75;;;;;16.80;100907.00;;;;5068289;28;20202;-81
2021/05/23 06:40:59;;;;;;;8.35;3.00;;;;;16.90;100912.00;;;;5068174;28;20679;-79
2021/05/23 06:43:25;;;;;;;4.97;2.28;;;;;16.90;100915.00;;;;5067878;28;20195;-81
2021/05/23 06:45:53;;;;;;;4.55;2.08;;;;;16.90;100914.00;;;;5068197;28;20225;-81
2021/05/23 06:48:21;;;;;;;6.28;2.47;;;;;16.90;100914.00;;;;5068399;28;20207;-81
2021/05/23 06:50:48;;;;;;;4.95;2.45;;;;;16.90;100925.00;;;;5068367;28;20229;-80
2021/05/23 06:53:16;;;;;;;5.75;2.42;;;;;17.00;100929.00;;;;5067915;28;20548;-80
2021/05/23 06:55:42;;;;;;;4.50;2.03;;;;;17.00;100930.00;;;;5081393;28;20199;-81
2021/05/23 06:58:09;;;;;;;5.70;1.95;;;;;17.00;100933.00;;;;5069677;28;20195;-82
2021/05/23 07:00:36;;;;;;;4.75;1.88;;;;;17.00;100932.00;;;;5074741;28;20198;-80
2021/05/23 07:03:03;;;;;;;5.88;2.42;;;;;17.00;100938.00;;;;5075909;28;20246;-81
2021/05/23 07:05:30;;;;;;;6.88;1.90;;;;;17.00;100941.00;;;;5067638;28;20217;-84
2021/05/23 07:07:57;;;;;;;5.72;2.17;;;;;17.10;100942.00;;;;5068854;28;20218;-85
2021/05/23 07:10:24;;;;;;;4.75;2.33;;;;;17.10;100940.00;;;;5068219;28;20195;-83
2021/05/23 07:12:51;;;;;;;4.80;2.08;;;;;17.10;100937.00;;;;5068165;28;20230;-81
2021/05/23 07:15:18;;;;;;;2.65;2.13;;;;;17.20;100937.00;;;;5072804;28;20202;-83
2021/05/23 07:17:44;;;;;;;5.30;2.30;;;;;17.20;100949.00;;;;5069947;28;20256;-83
2021/05/23 07:20:12;;;;;;;5.25;2.22;;;;;17.20;100946.00;;;;5066748;28;20201;-82
2021/05/23 07:22:39;;;;;;;2.53;1.90;;;;;17.20;100959.00;;;;5068690;28;20195;-83
2021/05/23 07:25:07;;;;;;;8.75;2.28;;;;;17.20;100957.00;;;;5066824;28;20210;-82
2021/05/23 07:27:35;;;;;;;5.30;2.03;;;;;17.20;100961.00;;;;5079504;28;20226;-84
2021/05/23 07:30:01;;;;;;;6.18;2.03;;;;;17.20;100966.00;;;;5067231;28;20206;-83
2021/05/23 07:32:28;;;;;;;4.25;1.80;;;;;17.30;100959.00;;;;5067927;28;20227;-83
2021/05/23 07:34:55;;;;;;;5.80;2.20;;;;;17.30;100959.00;;;;5071233;28;20729;-84
2021/05/23 07:37:22;;;;;;;5.32;2.00;;;;;17.30;100956.00;;;;5071091;28;20203;-83
2021/05/23 07:39:48;;;;;;;4.47;2.08;;;;;17.40;100970.00;;;;5070935;28;20207;-82
2021/05/23 07:42:15;;;;;;;4.53;2.58;;;;;17.40;100968.00;;;;5070709;28;20587;-82
2021/05/23 07:44:43;;;;;;;3.85;1.92;;;;;17.40;100971.00;;;;5071220;28;20191;-81
2021/05/23 07:47:09;;;;;;;4.80;3.28;;;;;17.40;100976.00;;;;5070483;28;20206;-82
2021/05/23 07:49:41;;;;;;;6.45;2.38;;;;;17.50;100985.00;;;;5076765;28;20211;-84
2021/05/23 07:52:08;;;;;;;5.50;2.70;;;;;17.40;100979.00;;;;5069812;28;20840;-83
2021/05/23 07:54:35;;;;;;;4.30;1.70;;;;;17.50;100976.00;;;;5070672;28;20264;-83
2021/05/23 07:57:02;;;;;;;4.43;2.03;;;;;17.50;100979.00;;;;5071175;28;20203;-82
2021/05/23 07:59:29;;;;;;;4.55;2.35;;;;;17.50;100984.00;;;;5081636;28;20194;-81
2021/05/23 08:01:57;;;;;;;3.35;1.85;;;;;17.50;100981.00;;;;5083642;28;20194;-81
2021/05/23 08:04:24;;;;;;;3.03;2.08;;;;;17.60;100980.00;;;;5077458;28;20195;-81
2021/05/23 08:06:50;;;;;;;2.65;2.17;;;;;17.60;100979.00;;;;5083008;28;20240;-82
2021/05/23 08:09:19;;;;;;;3.83;2.13;;;;;17.60;100983.00;;;;5070298;28;20308;-83
2021/05/23 08:11:46;;;;;;;8.35;2.40;;;;;17.60;100986.00;;;;5070318;28;20667;-81
2021/05/23 08:14:14;;;;;;;4.28;2.22;;;;;17.60;100987.00;;;;5068991;28;20195;-80
2021/05/23 08:16:43;;;;;;;3.45;2.00;;;;;17.60;100990.00;;;;5076964;28;20199;-80
2021/05/23 08:19:11;;;;;;;3.70;2.00;;;;;17.60;100997.00;;;;5069700;28;20706;-81
2021/05/23 08:21:38;;;;;;;5.13;2.25;;;;;17.60;101002.00;;;;5069343;28;20745;-80
2021/05/23 08:24:07;;;;;;;3.67;1.95;;;;;17.60;101002.00;;;;5070797;28;20221;-80
2021/05/23 08:26:34;;;;;;;4.72;2.20;;;;;17.70;100996.00;;;;5069879;28;20199;-80
2021/05/23 08:29:01;;;;;;;2.08;1.33;;;;;17.80;101003.00;;;;5077755;28;20218;-80
2021/05/23 08:31:28;;;;;;;3.20;1.70;;;;;17.80;101011.00;;;;5068947;28;20229;-79
2021/05/23 08:33:55;;;;;;;2.95;1.67;;;;;17.80;101009.00;;;;5084155;28;20194;-80
2021/05/23 08:36:23;;;;;;;2.45;1.27;;;;;17.90;101013.00;;;;5074401;28;20206;-80
2021/05/23 08:38:50;;;;;;;2.55;1.38;;;;;17.90;101017.00;;;;5076921;28;20249;-79
2021/05/23 08:41:17;;;;;;;1.85;1.15;;;;;18.00;101031.00;;;;5080383;28;20572;-80
2021/05/23 08:43:45;;;;;;;4.82;1.05;;;;;18.00;101036.00;;;;5071483;28;20203;-79
2021/05/23 08:46:12;;;;;;;2.85;1.50;;;;;18.00;101029.00;;;;5069108;28;20211;-79
2021/05/23 08:48:41;;;;;;;3.35;1.00;;;;;18.10;101040.00;;;;5070259;28;20661;-80
2021/05/23 08:51:08;;;;;;;2.92;1.27;;;;;18.10;101039.00;;;;5069330;28;20226;-77
2021/05/23 08:53:36;;;;;;;2.15;1.10;;;;;18.20;101051.00;;;;5073374;28;20244;-78
2021/05/23 08:56:03;;;;;;;2.60;1.20;;;;;18.20;101043.00;;;;5069846;28;20206;-80
2021/05/23 08:58:30;;;;;;;2.47;1.40;;;;;18.20;101047.00;;;;5070393;28;20206;-81
2021/05/23 09:00:57;;;;;;;3.10;1.50;;;;;18.20;101041.00;;;;5069364;28;20201;-78
2021/05/23 09:03:24;;;;;;;2.55;1.17;;;;;18.30;101053.00;;;;5070225;28;20203;-80
2021/05/23 09:05:55;;;;;;;3.97;1.08;;;;;18.40;101055.00;;;;5069827;28;20194;-80
2021/05/23 09:08:25;;;;;;;2.95;1.30;;;;;18.40;101061.00;;;;5068022;28;20594;-79
2021/05/23 09:10:54;;;;;;;3.65;2.08;;;;;18.50;101063.00;;;;5069487;28;21015;-79
2021/05/23 09:13:29;;;;;;;2.53;1.15;;;;;18.60;101076.00;;;;5068715;28;20202;-79
2021/05/23 09:16:05;;;;;;;3.90;1.63;;;;;18.70;101079.00;;;;5078445;28;20187;-81
2021/05/23 09:18:42;;;;;;;2.75;1.40;;;;;18.70;101085.00;;;;5071391;28;21023;-79
2021/05/23 09:21:10;;;;;;;2.08;0.85;;;;;18.80;101084.00;;;;5070319;28;20211;-80
2021/05/23 09:23:47;;;;;;;3.25;1.00;;;;;18.80;101093.00;;;;5070227;28;20594;-77
2021/05/23 09:26:17;;;;;;;2.05;0.98;;;;;18.90;101089.00;;;;5068526;28;20203;-82
2021/05/23 09:28:49;;;;;;;3.70;1.35;;;;;18.90;101092.00;;;;5068320;28;20211;-77
2021/05/23 09:31:18;;;;;;;1.92;0.75;;;;;18.80;101101.00;;;;5084251;28;20250;-78
2021/05/23 09:33:47;;;;;;;2.47;0.77;;;;;18.80;101107.00;;;;5081710;28;20198;-78
2021/05/23 09:36:15;;;;;;;1.60;0.98;;;;;18.70;101109.00;;;;5088535;28;20198;-77
2021/05/23 09:38:51;;;;;;;3.47;1.30;;;;;18.70;101117.00;;;;5087060;28;20205;-77
2021/05/23 09:41:21;;;;;;;4.55;1.20;;;;;18.80;101108.00;;;;5087834;28;20213;-77
2021/05/23 09:43:48;;;;;;;2.95;1.10;;;;;18.80;101107.00;;;;5088681;28;20209;-77
2021/05/23 09:46:15;;;;;;;1.58;0.90;;;;;18.80;101101.00;;;;5089467;28;20220;-79
2021/05/23 09:48:49;;;;;;;1.50;0.98;;;;;18.80;101103.00;;;;5088071;28;20217;-76
2021/05/23 09:51:18;;;;;;;3.17;1.10;;;;;18.80;101100.00;;;;5088307;28;20587;-76
2021/05/23 09:53:57;;;;;;;2.00;1.10;;;;;18.80;101117.00;;;;5077317;28;20198;-78
2021/05/23 09:56:30;;;;;;;3.28;0.90;;;;;18.70;101115.00;;;;5068048;28;20207;-76
2021/05/23 09:58:57;;;;;;;3.50;1.10;;;;;18.80;101116.00;;;;5068845;28;20202;-78
2021/05/23 10:01:26;;;;;;;3.92;1.45;;;;;18.80;101122.00;;;;5068446;28;20203;-76
2021/05/23 10:03:56;;;;;;;1.15;0.77;;;;;18.90;101118.00;;;;5083558;28;20633;-77
2021/05/23 10:06:26;;;;;;;1.23;0.90;;;;;18.90;101111.00;;;;5075879;28;20248;-79
2021/05/23 10:08:54;;;;;;;4.63;1.05;;;;;18.90;101121.00;;;;5074002;28;20241;-78
2021/05/23 10:11:21;;;;;;;3.15;1.08;;;;;19.00;101116.00;;;;5082822;28;20230;-79
2021/05/23 10:13:49;;;;;;;4.75;1.40;;;;;18.90;101126.00;;;;5069976;28;20412;-75
2021/05/23 10:16:16;;;;;;;1.75;1.20;;;;;18.90;101134.00;;;;5076703;28;20191;-75
2021/05/23 10:18:45;;;;;;;3.75;1.13;;;;;18.90;101140.00;;;;5072052;28;20222;-75
2021/05/23 10:21:13;;;;;;;3.53;1.05;;;;;18.80;101145.00;;;;5087778;28;20198;-75
2021/05/23 10:23:43;;;;;;;3.85;1.10;;;;;18.70;101154.00;;;;5086471;28;20202;-75
2021/05/23 10:26:13;;;;;;;1.40;0.98;;;;;18.70;101155.00;;;;5087520;28;20197;-75
2021/05/23 10:28:42;;;;;;;1.08;0.70;;;;;18.60;101168.00;;;;5078476;28;20219;-75
2021/05/23 10:31:11;;;;;;;1.73;0.63;;;;;18.50;101156.00;;;;5067686;28;20199;-76
2021/05/23 10:33:48;;;;;;;4.22;0.88;;;;;18.40;101161.00;;;;5067600;28;20683;-74
2021/05/23 10:36:15;;;;;;;4.28;1.05;;;;;18.40;101165.00;;;;5080221;28;20206;-75
2021/05/23 10:38:42;;;;;;;2.60;0.90;;;;;18.30;101162.00;;;;5087264;28;20199;-74
2021/05/23 10:41:08;;;;;;;1.00;0.45;;;;;18.20;101160.00;;;;5087758;28;20237;-75
2021/05/23 10:43:36;;;;;;;1.42;0.80;;;;;18.20;101158.00;;;;5087701;28;20190;-74
2021/05/23 10:46:05;;;;;;;1.80;0.82;;;;;18.20;101163.00;;;;5086120;28;20216;-74
2021/05/23 10:48:34;;;;;;;1.50;0.88;;;;;18.20;101163.00;;;;5087847;28;20237;-74
2021/05/23 10:51:12;;;;;;;3.70;1.17;;;;;18.10;101161.00;;;;5087989;28;20202;-74
2021/05/23 10:53:39;;;;;;;1.17;0.80;;;;;18.20;101157.00;;;;5083124;28;20209;-74
2021/05/23 10:56:06;;;;;;;2.40;0.88;;;;;18.30;101157.00;;;;5077630;28;20198;-73
2021/05/23 10:58:32;;;;;;;2.85;1.20;;;;;18.30;101164.00;;;;5088852;28;20663;-74
2021/05/23 11:01:00;;;;;;;1.40;1.08;;;;;18.40;101165.00;;;;5087023;28;20198;-75
2021/05/23 11:03:28;;;;;;;3.75;1.48;;;;;18.40;101161.00;;;;5080675;28;20297;-74
2021/05/23 11:06:03;;;;;;;1.33;1.00;;;;;18.40;101162.00;;;;5073560;28;20207;-74
2021/05/23 11:08:31;;;;;;;1.30;0.90;;;;;18.50;101167.00;;;;5079942;28;20234;-73
2021/05/23 11:10:57;;;;;;;3.22;0.95;;;;;18.60;101179.00;;;;5082133;28;20202;-74
2021/05/23 11:13:33;;;;;;;1.10;0.82;;;;;18.60;101184.00;;;;5077324;28;21392;-73
2021/05/23 11:16:11;;;;;;;1.63;0.95;;;;;18.60;101176.00;;;;5089284;28;20315;-73
2021/05/23 11:18:38;;;;;;;1.95;0.98;;;;;18.80;101185.00;;;;5069376;28;20210;-74
2021/05/23 11:21:07;;;;;;;1.77;0.50;;;;;18.90;101184.00;;;;5069903;28;20226;-74
2021/05/23 11:23:44;;;;;;;1.58;0.63;;;;;18.90;101186.00;;;;5075625;28;20669;-76
2021/05/23 11:26:12;;;;;;;2.05;0.77;;;;;19.10;101188.00;;;;5067763;28;20994;-76
2021/05/23 11:28:40;;;;;;;2.40;0.77;;;;;19.20;101178.00;;;;5069447;28;20268;-76
2021/05/23 11:31:07;;;;;;;2.10;0.80;;;;;19.20;101193.00;;;;5082210;28;20335;-76
2021/05/23 11:33:33;;;;;;;1.92;0.80;;;;;19.30;101191.00;;;;5077222;28;20296;-74
2021/05/23 11:36:00;;;;;;;3.13;1.10;;;;;19.30;101192.00;;;;5068915;28;20198;-74
2021/05/23 11:38:37;;;;;;;2.65;0.75;;;;;19.30;101195.00;;;;5069214;28;20241;-74
2021/05/23 11:41:05;;;;;;;2.03;0.90;;;;;19.50;101195.00;;;;5069654;28;20493;-73
2021/05/23 11:43:32;;;;;;;1.17;0.85;;;;;19.60;101202.00;;;;5069317;28;20199;-77
2021/05/23 11:46:02;;;;;;;1.40;0.68;;;;;19.70;101192.00;;;;5068866;28;20206;-75
2021/05/23 11:48:37;;;;;;;2.20;0.68;;;;;19.70;101192.00;;;;5079333;28;20255;-75
2021/05/23 11:51:05;;;;;;;3.90;1.15;;;;;19.90;101188.00;;;;5089256;28;20551;-74
2021/05/23 11:53:38;;;;;;;2.35;0.85;;;;;19.90;101185.00;;;;5088826;28;20198;-74
2021/05/23 11:56:05;;;;;;;1.08;0.70;;;;;20.00;101189.00;;;;5076279;28;20225;-73
2021/05/23 11:58:32;;;;;;;2.15;0.60;;;;;20.20;101195.00;;;;5072568;28;20210;-74
2021/05/23 12:01:13;;;;;;;1.08;0.82;;;;;20.20;101196.00;;;;5088343;28;20198;-74
2021/05/23 12:03:40;;;;;;;3.03;0.80;;;;;20.30;101193.00;;;;5071415;28;20199;-75
2021/05/23 12:06:16;;;;;;;3.85;1.00;;;;;20.40;101195.00;;;;5070398;28;20202;-74
2021/05/23 12:08:44;;;;;;;2.40;0.70;;;;;20.50;101199.00;;;;5070559;28;20222;-74
2021/05/23 12:11:11;;;;;;;2.55;0.60;;;;;20.70;101198.00;;;;5070020;28;20568;-74
2021/05/23 12:13:39;;;;;;;1.45;0.63;;;;;20.70;101188.00;;;;5071091;28;20225;-74